createdAt,value
2023-04-26T00:00:23.538Z,4.27
2023-04-26T00:00:56.211Z,4.26
2023-04-26T00:01:28.885Z,4.24
2023-04-26T00:02:01.588Z,4.26
2023-04-26T00:02:34.416Z,4.26
2023-04-26T00:03:07.320Z,4.24
2023-04-26T00:03:40.330Z,4.24
2023-04-26T00:04:06.898Z,4.23
2023-04-26T00:04:33.314Z,4.23
2023-04-26T00:05:06.175Z,4.23
2023-04-26T00:05:39.144Z,4.23
2023-04-26T00:06:11.828Z,4.24
2023-04-26T00:06:44.494Z,4.22
2023-04-26T00:07:17.182Z,4.22
2023-04-26T00:07:49.838Z,4.23
2023-04-26T00:08:22.531Z,4.22
2023-04-26T00:08:55.589Z,4.22
2023-04-26T00:09:21.905Z,4.20
2023-04-26T00:09:54.586Z,4.18
2023-04-26T00:10:27.258Z,4.22
2023-04-26T00:10:59.921Z,4.22
2023-04-26T00:11:32.625Z,4.20
2023-04-26T00:12:05.262Z,4.18
2023-04-26T00:12:37.953Z,4.18
2023-04-26T00:13:10.596Z,4.20
2023-04-26T00:13:43.297Z,4.18
2023-04-26T00:14:15.962Z,4.16
2023-04-26T00:14:48.669Z,4.16
2023-04-26T00:15:21.327Z,4.18
2023-04-26T00:15:54.063Z,4.16
2023-04-26T00:16:26.755Z,4.18
2023-04-26T00:16:59.406Z,4.18
2023-04-26T00:17:32.100Z,4.16
2023-04-26T00:18:04.819Z,4.16
2023-04-26T00:18:37.552Z,4.18
2023-04-26T00:19:10.199Z,4.18
2023-04-26T00:19:42.881Z,4.18
2023-04-26T00:20:15.584Z,4.18
2023-04-26T00:20:48.224Z,4.20
2023-04-26T00:21:20.927Z,4.18
2023-04-26T00:21:53.635Z,4.18
2023-04-26T00:22:26.291Z,4.18
2023-04-26T00:22:58.960Z,4.16
2023-04-26T00:23:31.624Z,4.16
2023-04-26T00:24:04.304Z,4.16
2023-04-26T00:24:36.990Z,4.18
2023-04-26T00:25:09.687Z,4.18
2023-04-26T00:25:42.325Z,4.18
2023-04-26T00:26:14.995Z,4.22
2023-04-26T00:26:47.663Z,4.20
2023-04-26T00:27:20.343Z,4.20
2023-04-26T00:27:53.035Z,4.18
2023-04-26T00:28:25.712Z,4.20
2023-04-26T00:28:58.373Z,4.20
2023-04-26T00:29:31.041Z,4.18
2023-04-26T00:30:03.734Z,4.15
2023-04-26T00:30:36.404Z,4.14
2023-04-26T00:31:09.047Z,4.15
2023-04-26T00:31:41.775Z,4.15
2023-04-26T00:32:14.448Z,4.12
2023-04-26T00:32:47.174Z,4.14
2023-04-26T00:33:19.821Z,4.12
2023-04-26T00:33:52.490Z,4.15
2023-04-26T00:34:25.160Z,4.14
2023-04-26T00:34:57.879Z,4.12
2023-04-26T00:35:30.520Z,4.09
2023-04-26T00:36:03.183Z,4.08
2023-04-26T00:36:35.852Z,4.06
2023-04-26T00:37:08.538Z,4.08
2023-04-26T00:37:41.211Z,4.08
2023-04-26T00:38:12.326Z,4.08
2023-04-26T00:38:44.977Z,4.08
2023-04-26T00:39:17.651Z,4.06
2023-04-26T00:39:50.348Z,4.08
2023-04-26T00:40:23.009Z,4.06
2023-04-26T00:40:55.683Z,4.05
2023-04-26T00:41:28.373Z,4.06
2023-04-26T00:42:01.063Z,4.06
2023-04-26T00:42:33.716Z,4.05
2023-04-26T00:43:06.424Z,4.05
2023-04-26T00:43:39.063Z,4.04
2023-04-26T00:44:11.736Z,4.04
2023-04-26T00:44:44.414Z,4.04
2023-04-26T00:45:17.145Z,4.05
2023-04-26T00:45:49.830Z,4.02
2023-04-26T00:46:22.762Z,4.00
2023-04-26T00:46:49.027Z,4.00
2023-04-26T00:47:21.680Z,4.00
2023-04-26T00:47:54.364Z,4.02
2023-04-26T00:48:27.094Z,4.04
2023-04-26T00:48:59.751Z,4.04
2023-04-26T00:49:32.416Z,4.02
2023-04-26T00:50:05.098Z,4.02
2023-04-26T00:50:37.770Z,4.00
2023-04-26T00:51:10.434Z,4.02
2023-04-26T00:51:43.122Z,4.02
2023-04-26T00:52:14.182Z,4.00
2023-04-26T00:52:46.854Z,3.98
2023-04-26T00:53:19.549Z,4.00
2023-04-26T00:53:52.205Z,3.98
2023-04-26T00:54:24.871Z,3.98
2023-04-26T00:54:57.595Z,3.97
2023-04-26T00:55:30.394Z,3.96
2023-04-26T00:56:03.137Z,3.96
2023-04-26T00:56:35.811Z,3.96
2023-04-26T00:57:08.492Z,3.94
2023-04-26T00:57:41.168Z,3.93
2023-04-26T00:58:13.862Z,3.93
2023-04-26T00:58:46.527Z,3.91
2023-04-26T00:59:19.206Z,3.91
2023-04-26T00:59:51.885Z,3.90
2023-04-26T01:00:24.548Z,3.93
2023-04-26T01:00:57.308Z,3.90
2023-04-26T01:01:30.040Z,3.88
2023-04-26T01:02:02.723Z,3.91
2023-04-26T01:02:35.529Z,3.91
2023-04-26T01:03:08.528Z,3.90
2023-04-26T01:03:34.954Z,3.90
2023-04-26T01:04:07.919Z,3.88
2023-04-26T01:04:40.614Z,3.88
2023-04-26T01:05:13.293Z,3.88
2023-04-26T01:05:45.953Z,3.86
2023-04-26T01:06:18.652Z,3.84
2023-04-26T01:06:51.293Z,3.83
2023-04-26T01:07:23.960Z,3.83
2023-04-26T01:07:56.654Z,3.80
2023-04-26T01:08:29.315Z,3.80
2023-04-26T01:09:01.965Z,3.83
2023-04-26T01:09:34.654Z,3.80
2023-04-26T01:10:07.402Z,3.80
2023-04-26T01:10:38.430Z,3.79
2023-04-26T01:11:11.091Z,3.79
2023-04-26T01:11:43.827Z,3.78
2023-04-26T01:12:16.480Z,3.80
2023-04-26T01:12:49.152Z,3.79
2023-04-26T01:13:21.864Z,3.78
2023-04-26T01:13:54.528Z,3.79
2023-04-26T01:14:27.173Z,3.80
2023-04-26T01:14:59.839Z,3.80
2023-04-26T01:15:32.521Z,3.80
2023-04-26T01:16:05.210Z,3.79
2023-04-26T01:16:37.907Z,3.79
2023-04-26T01:17:10.631Z,3.79
2023-04-26T01:17:43.386Z,3.78
2023-04-26T01:18:16.038Z,3.80
2023-04-26T01:18:48.701Z,3.78
2023-04-26T01:19:21.373Z,3.78
2023-04-26T01:19:54.043Z,3.76
2023-04-26T01:20:26.765Z,3.76
2023-04-26T01:21:00.079Z,3.75
2023-04-26T01:21:27.638Z,3.75
2023-04-26T01:22:00.293Z,3.73
2023-04-26T01:22:32.964Z,3.72
2023-04-26T01:23:05.644Z,3.73
2023-04-26T01:23:38.334Z,3.72
2023-04-26T01:24:11.007Z,3.72
2023-04-26T01:24:43.654Z,3.72
2023-04-26T01:25:16.327Z,3.69
2023-04-26T01:25:49.010Z,3.70
2023-04-26T01:26:21.677Z,3.68
2023-04-26T01:26:54.350Z,3.68
2023-04-26T01:27:27.074Z,3.62
2023-04-26T01:27:59.702Z,3.62
2023-04-26T01:28:32.400Z,3.62
2023-04-26T01:29:05.049Z,3.61
2023-04-26T01:29:37.733Z,3.65
2023-04-26T01:30:10.397Z,3.61
2023-04-26T01:30:43.104Z,3.62
2023-04-26T01:31:15.919Z,3.61
2023-04-26T01:31:48.675Z,3.60
2023-04-26T01:32:21.343Z,3.60
2023-04-26T01:32:54.071Z,3.60
2023-04-26T01:33:26.726Z,3.60
2023-04-26T01:33:59.400Z,3.61
2023-04-26T01:34:32.068Z,3.60
2023-04-26T01:35:04.766Z,3.58
2023-04-26T01:35:37.443Z,3.57
2023-04-26T01:36:10.118Z,3.54
2023-04-26T01:36:42.843Z,3.55
2023-04-26T01:37:15.536Z,3.55
2023-04-26T01:37:48.208Z,3.55
2023-04-26T01:38:20.879Z,3.54
2023-04-26T01:38:53.748Z,3.54
2023-04-26T01:39:26.532Z,3.52
2023-04-26T01:39:59.200Z,3.54
2023-04-26T01:40:31.886Z,3.54
2023-04-26T01:41:04.558Z,3.54
2023-04-26T01:41:37.235Z,3.52
2023-04-26T01:42:09.922Z,3.52
2023-04-26T01:42:42.563Z,3.52
2023-04-26T01:43:15.233Z,3.51
2023-04-26T01:43:47.953Z,3.51
2023-04-26T01:44:20.607Z,3.52
2023-04-26T01:44:53.271Z,3.51
2023-04-26T01:45:25.988Z,3.50
2023-04-26T01:45:58.662Z,3.48
2023-04-26T01:46:31.397Z,3.51
2023-04-26T01:47:04.069Z,3.50
2023-04-26T01:47:36.808Z,3.51
2023-04-26T01:48:09.492Z,3.50
2023-04-26T01:48:42.150Z,3.51
2023-04-26T01:49:14.819Z,3.50
2023-04-26T01:49:47.490Z,3.50
2023-04-26T01:50:18.590Z,3.50
2023-04-26T01:50:51.266Z,3.45
2023-04-26T01:51:23.966Z,3.43
2023-04-26T01:51:56.648Z,3.45
2023-04-26T01:52:29.296Z,3.43
2023-04-26T01:53:01.965Z,3.42
2023-04-26T01:53:34.635Z,3.39
2023-04-26T01:54:07.315Z,3.42
2023-04-26T01:54:39.978Z,3.40
2023-04-26T01:55:12.647Z,3.43
2023-04-26T01:55:45.359Z,3.40
2023-04-26T01:56:18.043Z,3.42
2023-04-26T01:56:50.705Z,3.42
2023-04-26T01:57:23.366Z,3.39
2023-04-26T01:57:56.044Z,3.39
2023-04-26T01:58:28.719Z,3.39
2023-04-26T01:59:01.415Z,3.39
2023-04-26T01:59:34.076Z,3.39
2023-04-26T02:00:06.728Z,3.39
2023-04-26T02:00:39.409Z,3.39
2023-04-26T02:01:12.114Z,3.39
2023-04-26T02:01:44.798Z,3.39
2023-04-26T02:02:17.540Z,3.36
2023-04-26T02:02:50.305Z,3.36
2023-04-26T02:03:23.209Z,3.39
2023-04-26T02:03:55.890Z,3.39
2023-04-26T02:04:28.581Z,3.35
2023-04-26T02:05:01.267Z,3.36
2023-04-26T02:05:33.927Z,3.36
2023-04-26T02:06:06.629Z,3.33
2023-04-26T02:06:37.690Z,3.33
2023-04-26T02:07:10.366Z,3.32
2023-04-26T02:07:43.036Z,3.33
2023-04-26T02:08:15.688Z,3.33
2023-04-26T02:08:48.349Z,3.33
2023-04-26T02:09:21.035Z,3.32
2023-04-26T02:09:53.689Z,3.33
2023-04-26T02:10:26.390Z,3.31
2023-04-26T02:10:59.034Z,3.29
2023-04-26T02:11:31.714Z,3.31
2023-04-26T02:12:04.395Z,3.31
2023-04-26T02:12:37.108Z,3.29
2023-04-26T02:13:09.773Z,3.29
2023-04-26T02:13:42.455Z,3.26
2023-04-26T02:14:15.134Z,3.26
2023-04-26T02:14:47.782Z,3.26
2023-04-26T02:15:20.459Z,3.24
2023-04-26T02:15:53.169Z,3.23
2023-04-26T02:16:25.905Z,3.23
2023-04-26T02:16:58.588Z,3.23
2023-04-26T02:17:31.259Z,3.21
2023-04-26T02:18:03.918Z,3.23
2023-04-26T02:18:36.585Z,3.21
2023-04-26T02:19:09.279Z,3.21
2023-04-26T02:19:41.949Z,3.21
2023-04-26T02:20:14.615Z,3.20
2023-04-26T02:20:47.340Z,3.20
2023-04-26T02:21:19.988Z,3.18
2023-04-26T02:21:52.695Z,3.18
2023-04-26T02:22:25.325Z,3.18
2023-04-26T02:22:57.989Z,3.18
2023-04-26T02:23:30.657Z,3.17
2023-04-26T02:24:03.347Z,3.20
2023-04-26T02:24:36.015Z,3.17
2023-04-26T02:25:08.656Z,3.17
2023-04-26T02:25:41.335Z,3.18
2023-04-26T02:26:13.998Z,3.20
2023-04-26T02:26:46.669Z,3.15
2023-04-26T02:27:19.350Z,3.18
2023-04-26T02:27:52.009Z,3.17
2023-04-26T02:28:24.725Z,3.17
2023-04-26T02:28:57.356Z,3.14
2023-04-26T02:30:02.113Z,3.14
2023-04-26T02:30:28.345Z,3.14
2023-04-26T02:31:01.041Z,3.14
2023-04-26T02:31:33.722Z,3.15
2023-04-26T02:32:06.420Z,3.14
2023-04-26T02:32:39.154Z,3.14
2023-04-26T02:33:11.850Z,3.15
2023-04-26T02:33:44.532Z,3.15
2023-04-26T02:34:17.232Z,3.15
2023-04-26T02:34:49.891Z,3.17
2023-04-26T02:35:22.569Z,3.14
2023-04-26T02:35:55.240Z,3.15
2023-04-26T02:36:27.921Z,3.13
2023-04-26T02:37:00.629Z,3.14
2023-04-26T02:37:33.327Z,3.14
2023-04-26T02:38:05.970Z,3.15
2023-04-26T02:38:38.644Z,3.11
2023-04-26T02:39:11.309Z,3.13
2023-04-26T02:39:43.976Z,3.11
2023-04-26T02:40:16.643Z,3.13
2023-04-26T02:40:49.363Z,3.11
2023-04-26T02:41:21.993Z,3.11
2023-04-26T02:41:54.667Z,3.10
2023-04-26T02:42:27.331Z,3.11
2023-04-26T02:43:00.001Z,3.10
2023-04-26T02:43:32.679Z,3.08
2023-04-26T02:44:05.365Z,3.08
2023-04-26T02:44:38.051Z,3.08
2023-04-26T02:45:10.701Z,3.06
2023-04-26T02:45:43.385Z,3.06
2023-04-26T02:46:17.309Z,3.06
2023-04-26T02:46:43.629Z,3.05
2023-04-26T02:47:16.317Z,3.06
2023-04-26T02:47:48.992Z,3.08
2023-04-26T02:48:21.647Z,3.05
2023-04-26T02:48:54.710Z,3.06
2023-04-26T02:49:20.973Z,3.05
2023-04-26T02:49:53.644Z,3.03
2023-04-26T02:50:26.372Z,3.03
2023-04-26T02:50:59.036Z,3.02
2023-04-26T02:51:30.111Z,3.02
2023-04-26T02:52:02.778Z,3.05
2023-04-26T02:52:35.454Z,3.03
2023-04-26T02:53:08.127Z,3.00
2023-04-26T02:53:40.818Z,3.02
2023-04-26T02:54:13.477Z,3.02
2023-04-26T02:54:46.136Z,3.00
2023-04-26T02:55:18.822Z,3.03
2023-04-26T02:55:51.512Z,3.03
2023-04-26T02:56:24.168Z,3.02
2023-04-26T02:56:56.846Z,3.03
2023-04-26T02:57:29.495Z,3.00
2023-04-26T02:58:02.159Z,3.02
2023-04-26T02:58:34.819Z,3.02
2023-04-26T02:59:07.509Z,3.00
2023-04-26T02:59:40.163Z,2.99
2023-04-26T03:00:12.925Z,3.00
2023-04-26T03:00:45.677Z,3.00
2023-04-26T03:01:18.355Z,2.97
2023-04-26T03:01:51.092Z,2.99
2023-04-26T03:02:23.881Z,2.99
2023-04-26T03:02:56.776Z,2.97
2023-04-26T03:03:23.417Z,2.99
2023-04-26T03:03:49.831Z,2.97
2023-04-26T03:04:22.512Z,2.96
2023-04-26T03:04:55.160Z,2.96
2023-04-26T03:05:27.857Z,2.96
2023-04-26T03:06:00.528Z,2.95
2023-04-26T03:06:33.199Z,2.96
2023-04-26T03:07:05.895Z,2.96
2023-04-26T03:07:38.568Z,2.96
2023-04-26T03:08:11.217Z,2.96
2023-04-26T03:08:43.916Z,2.96
2023-04-26T03:09:16.625Z,2.95
2023-04-26T03:09:49.308Z,2.95
2023-04-26T03:10:21.979Z,2.95
2023-04-26T03:10:54.676Z,2.96
2023-04-26T03:11:27.323Z,2.93
2023-04-26T03:12:00.052Z,2.93
2023-04-26T03:12:32.709Z,2.93
2023-04-26T03:13:05.381Z,2.92
2023-04-26T03:13:38.044Z,2.93
2023-04-26T03:14:10.737Z,2.92
2023-04-26T03:14:43.381Z,2.89
2023-04-26T03:15:16.087Z,2.87
2023-04-26T03:15:48.738Z,2.87
2023-04-26T03:16:21.450Z,2.87
2023-04-26T03:16:54.267Z,2.87
2023-04-26T03:17:27.008Z,2.89
2023-04-26T03:17:59.712Z,2.89
2023-04-26T03:18:32.363Z,2.89
2023-04-26T03:19:05.053Z,2.89
2023-04-26T03:19:37.725Z,2.87
2023-04-26T03:20:10.389Z,2.89
2023-04-26T03:20:43.106Z,2.87
2023-04-26T03:21:15.759Z,2.90
2023-04-26T03:21:48.436Z,2.87
2023-04-26T03:22:21.091Z,2.89
2023-04-26T03:22:53.756Z,2.89
2023-04-26T03:23:26.445Z,2.89
2023-04-26T03:23:59.139Z,2.89
2023-04-26T03:24:31.803Z,2.87
2023-04-26T03:25:04.448Z,2.89
2023-04-26T03:25:37.140Z,2.87
2023-04-26T03:26:09.832Z,2.87
2023-04-26T03:26:42.518Z,2.87
2023-04-26T03:27:15.198Z,2.89
2023-04-26T03:27:47.855Z,2.89
2023-04-26T03:28:20.526Z,2.87
2023-04-26T03:28:53.386Z,2.87
2023-04-26T03:29:19.710Z,2.89
2023-04-26T03:29:52.384Z,2.89
2023-04-26T03:30:25.110Z,2.85
2023-04-26T03:30:57.769Z,2.89
2023-04-26T03:31:30.453Z,2.85
2023-04-26T03:32:03.101Z,2.85
2023-04-26T03:32:35.764Z,2.85
2023-04-26T03:33:08.452Z,2.85
2023-04-26T03:33:41.119Z,2.85
2023-04-26T03:34:13.770Z,2.85
2023-04-26T03:34:46.432Z,2.85
2023-04-26T03:35:19.092Z,2.87
2023-04-26T03:35:51.783Z,2.85
2023-04-26T03:36:24.459Z,2.87
2023-04-26T03:36:57.151Z,2.87
2023-04-26T03:37:29.784Z,2.85
2023-04-26T03:38:02.465Z,2.87
2023-04-26T03:38:35.125Z,2.87
2023-04-26T03:39:07.788Z,2.85
2023-04-26T03:39:40.458Z,2.85
2023-04-26T03:40:13.176Z,2.85
2023-04-26T03:40:44.234Z,2.85
2023-04-26T03:41:16.899Z,2.84
2023-04-26T03:41:49.568Z,2.85
2023-04-26T03:42:22.237Z,2.84
2023-04-26T03:42:54.910Z,2.85
2023-04-26T03:43:27.610Z,2.84
2023-04-26T03:44:00.255Z,2.85
2023-04-26T03:44:32.931Z,2.85
2023-04-26T03:45:05.609Z,2.82
2023-04-26T03:45:38.396Z,2.84
2023-04-26T03:46:11.174Z,2.81
2023-04-26T03:46:43.888Z,2.82
2023-04-26T03:47:16.599Z,2.81
2023-04-26T03:47:49.262Z,2.82
2023-04-26T03:48:21.931Z,2.82
2023-04-26T03:48:54.893Z,2.79
2023-04-26T03:49:21.133Z,2.82
2023-04-26T03:49:53.775Z,2.82
2023-04-26T03:50:26.474Z,2.81
2023-04-26T03:50:59.180Z,2.84
2023-04-26T03:51:31.855Z,2.82
2023-04-26T03:52:04.548Z,2.84
2023-04-26T03:52:37.198Z,2.82
2023-04-26T03:53:09.865Z,2.84
2023-04-26T03:53:42.554Z,2.81
2023-04-26T03:54:15.220Z,2.81
2023-04-26T03:54:47.871Z,2.84
2023-04-26T03:55:20.577Z,2.82
2023-04-26T03:55:53.232Z,2.82
2023-04-26T03:56:25.900Z,2.82
2023-04-26T03:56:58.590Z,2.81
2023-04-26T03:57:29.655Z,2.81
2023-04-26T03:58:02.324Z,2.81
2023-04-26T03:58:34.995Z,2.81
2023-04-26T03:59:07.660Z,2.81
2023-04-26T03:59:40.336Z,2.81
2023-04-26T04:00:13.011Z,2.81
2023-04-26T04:00:45.723Z,2.79
2023-04-26T04:01:18.357Z,2.78
2023-04-26T04:01:51.037Z,2.79
2023-04-26T04:02:23.790Z,2.79
2023-04-26T04:02:56.678Z,2.79
2023-04-26T04:03:29.592Z,2.78
2023-04-26T04:04:02.575Z,2.79
2023-04-26T04:04:29.108Z,2.79
2023-04-26T04:04:55.683Z,2.79
2023-04-26T04:05:22.039Z,2.81
2023-04-26T04:05:54.686Z,2.81
2023-04-26T04:06:27.380Z,2.84
2023-04-26T04:07:00.028Z,2.82
2023-04-26T04:07:32.707Z,2.81
2023-04-26T04:08:05.371Z,2.81
2023-04-26T04:08:38.044Z,2.81
2023-04-26T04:09:10.714Z,2.82
2023-04-26T04:09:43.392Z,2.84
2023-04-26T04:10:16.095Z,2.82
2023-04-26T04:10:48.757Z,2.82
2023-04-26T04:11:21.444Z,2.84
2023-04-26T04:11:54.099Z,2.82
2023-04-26T04:12:26.775Z,2.82
2023-04-26T04:12:59.441Z,2.84
2023-04-26T04:13:32.140Z,2.82
2023-04-26T04:14:04.796Z,2.82
2023-04-26T04:14:37.474Z,2.84
2023-04-26T04:15:10.140Z,2.82
2023-04-26T04:15:42.849Z,2.84
2023-04-26T04:16:15.664Z,2.84
2023-04-26T04:16:48.340Z,2.85
2023-04-26T04:17:20.976Z,2.84
2023-04-26T04:17:53.679Z,2.85
2023-04-26T04:18:26.332Z,2.85
2023-04-26T04:18:58.997Z,2.85
2023-04-26T04:19:31.661Z,2.87
2023-04-26T04:20:04.392Z,2.85
2023-04-26T04:20:37.054Z,2.87
2023-04-26T04:21:09.744Z,2.87
2023-04-26T04:21:42.429Z,2.87
2023-04-26T04:22:15.084Z,2.87
2023-04-26T04:22:47.770Z,2.84
2023-04-26T04:23:18.877Z,2.85
2023-04-26T04:23:51.536Z,2.85
2023-04-26T04:24:24.217Z,2.85
2023-04-26T04:24:56.888Z,2.84
2023-04-26T04:25:29.564Z,2.84
2023-04-26T04:26:02.224Z,2.84
2023-04-26T04:26:34.931Z,2.85
2023-04-26T04:27:07.582Z,2.87
2023-04-26T04:27:40.245Z,2.87
2023-04-26T04:28:12.920Z,2.85
2023-04-26T04:28:45.607Z,2.85
2023-04-26T04:29:18.271Z,2.87
2023-04-26T04:29:50.945Z,2.87
2023-04-26T04:30:23.618Z,2.89
2023-04-26T04:30:56.327Z,2.87
2023-04-26T04:31:29.036Z,2.87
2023-04-26T04:32:01.670Z,2.89
2023-04-26T04:32:34.392Z,2.90
2023-04-26T04:33:07.142Z,2.90
2023-04-26T04:33:39.829Z,2.89
2023-04-26T04:34:12.470Z,2.89
2023-04-26T04:34:45.141Z,2.89
2023-04-26T04:35:17.817Z,2.90
2023-04-26T04:35:50.489Z,2.90
2023-04-26T04:36:23.197Z,2.90
2023-04-26T04:36:55.860Z,2.89
2023-04-26T04:37:28.540Z,2.92
2023-04-26T04:38:01.219Z,2.95
2023-04-26T04:38:33.920Z,2.93
2023-04-26T04:39:06.585Z,2.92
2023-04-26T04:39:39.279Z,2.92
2023-04-26T04:40:11.981Z,2.93
2023-04-26T04:40:44.644Z,2.93
2023-04-26T04:41:17.326Z,2.93
2023-04-26T04:41:49.988Z,2.92
2023-04-26T04:42:22.660Z,2.92
2023-04-26T04:42:55.488Z,2.93
2023-04-26T04:43:28.279Z,2.96
2023-04-26T04:44:01.570Z,2.96
2023-04-26T04:44:27.721Z,2.96
2023-04-26T04:45:00.395Z,2.97
2023-04-26T04:45:33.082Z,2.97
2023-04-26T04:46:05.808Z,2.97
2023-04-26T04:46:36.980Z,2.96
2023-04-26T04:47:09.655Z,3.00
2023-04-26T04:47:42.380Z,2.99
2023-04-26T04:48:15.032Z,2.97
2023-04-26T04:48:47.708Z,2.99
2023-04-26T04:49:20.379Z,2.99
2023-04-26T04:49:53.106Z,2.99
2023-04-26T04:50:25.778Z,2.99
2023-04-26T04:50:56.872Z,3.02
2023-04-26T04:51:29.538Z,2.99
2023-04-26T04:52:02.208Z,3.02
2023-04-26T04:52:34.889Z,3.03
2023-04-26T04:53:07.569Z,3.05
2023-04-26T04:53:40.251Z,3.06
2023-04-26T04:54:12.905Z,3.06
2023-04-26T04:54:45.576Z,3.08
2023-04-26T04:55:18.252Z,3.08
2023-04-26T04:55:50.930Z,3.08
2023-04-26T04:56:23.600Z,3.10
2023-04-26T04:56:56.310Z,3.10
2023-04-26T04:57:28.971Z,3.13
2023-04-26T04:58:01.642Z,3.10
2023-04-26T04:58:34.315Z,3.06
2023-04-26T04:59:06.987Z,3.10
2023-04-26T04:59:39.689Z,3.10
2023-04-26T05:00:12.334Z,3.11
2023-04-26T05:00:45.024Z,3.13
2023-04-26T05:01:17.727Z,3.14
2023-04-26T05:01:48.828Z,3.14
2023-04-26T05:02:21.594Z,3.15
2023-04-26T05:02:54.527Z,3.18
2023-04-26T05:03:21.014Z,3.17
2023-04-26T05:03:47.413Z,3.18
2023-04-26T05:04:20.592Z,3.18
2023-04-26T05:04:46.916Z,3.20
2023-04-26T05:05:19.613Z,3.21
2023-04-26T05:05:52.294Z,3.21
2023-04-26T05:06:24.972Z,3.23
2023-04-26T05:06:56.048Z,3.24
2023-04-26T05:07:29.251Z,3.24
2023-04-26T05:07:55.417Z,3.24
2023-04-26T05:08:28.073Z,3.24
2023-04-26T05:09:00.751Z,3.29
2023-04-26T05:09:33.507Z,3.29
2023-04-26T05:10:06.156Z,3.29
2023-04-26T05:10:38.902Z,3.29
2023-04-26T05:11:11.530Z,3.31
2023-04-26T05:11:44.196Z,3.32
2023-04-26T05:12:16.887Z,3.35
2023-04-26T05:12:49.541Z,3.33
2023-04-26T05:13:22.215Z,3.33
2023-04-26T05:13:55.075Z,3.35
2023-04-26T05:14:25.955Z,3.36
2023-04-26T05:14:58.620Z,3.36
2023-04-26T05:15:31.312Z,3.39
2023-04-26T05:16:04.023Z,3.36
2023-04-26T05:16:36.714Z,3.36
2023-04-26T05:17:09.424Z,3.39
2023-04-26T05:17:42.087Z,3.40
2023-04-26T05:18:14.742Z,3.40
2023-04-26T05:18:47.402Z,3.40
2023-04-26T05:19:20.067Z,3.42
2023-04-26T05:19:52.730Z,3.43
2023-04-26T05:20:25.433Z,3.43
2023-04-26T05:20:58.082Z,3.45
2023-04-26T05:21:30.751Z,3.45
2023-04-26T05:22:03.417Z,3.45
2023-04-26T05:22:36.119Z,3.47
2023-04-26T05:23:08.809Z,3.48
2023-04-26T05:23:39.927Z,3.50
2023-04-26T05:24:12.577Z,3.52
2023-04-26T05:24:45.273Z,3.51
2023-04-26T05:25:18.867Z,3.51
2023-04-26T05:25:46.361Z,3.52
2023-04-26T05:26:19.017Z,3.55
2023-04-26T05:26:51.731Z,3.54
2023-04-26T05:27:24.382Z,3.57
2023-04-26T05:27:57.042Z,3.58
2023-04-26T05:28:29.714Z,3.60
2023-04-26T05:29:02.375Z,3.61
2023-04-26T05:29:35.043Z,3.62
2023-04-26T05:30:07.744Z,3.62
2023-04-26T05:30:40.405Z,3.66
2023-04-26T05:31:13.110Z,3.69
2023-04-26T05:31:45.885Z,3.69
2023-04-26T05:32:18.542Z,3.69
2023-04-26T05:32:51.208Z,3.72
2023-04-26T05:33:23.879Z,3.72
2023-04-26T05:33:56.594Z,3.73
2023-04-26T05:34:29.245Z,3.75
2023-04-26T05:35:01.916Z,3.79
2023-04-26T05:35:34.600Z,3.80
2023-04-26T05:36:07.276Z,3.80
2023-04-26T05:36:39.941Z,3.84
2023-04-26T05:37:12.617Z,3.84
2023-04-26T05:37:45.310Z,3.86
2023-04-26T05:38:17.957Z,3.88
2023-04-26T05:38:50.620Z,3.88
2023-04-26T05:39:23.284Z,3.88
2023-04-26T05:39:55.952Z,3.91
2023-04-26T05:40:28.637Z,3.91
2023-04-26T05:41:01.342Z,3.90
2023-04-26T05:41:33.972Z,3.90
2023-04-26T05:42:06.647Z,3.91
2023-04-26T05:42:39.317Z,3.93
2023-04-26T05:43:11.982Z,3.96
2023-04-26T05:43:44.646Z,3.97
2023-04-26T05:44:17.366Z,3.98
2023-04-26T05:44:50.016Z,3.98
2023-04-26T05:45:22.703Z,4.00
2023-04-26T05:45:55.424Z,4.00
2023-04-26T05:46:28.318Z,3.98
2023-04-26T05:47:01.025Z,3.97
2023-04-26T05:47:33.862Z,3.98
2023-04-26T05:48:06.564Z,4.00
2023-04-26T05:48:39.193Z,4.00
2023-04-26T05:49:11.863Z,4.05
2023-04-26T05:49:44.532Z,4.04
2023-04-26T05:50:17.184Z,4.05
2023-04-26T05:50:49.912Z,4.06
2023-04-26T05:51:22.583Z,4.09
2023-04-26T05:51:55.245Z,4.09
2023-04-26T05:52:27.917Z,4.08
2023-04-26T05:53:00.581Z,4.11
2023-04-26T05:53:33.278Z,4.11
2023-04-26T05:54:06.000Z,4.14
2023-04-26T05:54:38.640Z,4.14
2023-04-26T05:55:11.330Z,4.14
2023-04-26T05:55:44.016Z,4.16
2023-04-26T05:56:16.702Z,4.20
2023-04-26T05:56:49.369Z,4.22
2023-04-26T05:57:22.073Z,4.23
2023-04-26T05:57:54.767Z,4.24
2023-04-26T05:58:27.424Z,4.27
2023-04-26T05:59:00.123Z,4.29
2023-04-26T05:59:32.796Z,4.32
2023-04-26T06:00:05.459Z,4.33
2023-04-26T06:00:38.163Z,4.34
2023-04-26T06:01:10.810Z,4.32
2023-04-26T06:01:43.481Z,4.34
2023-04-26T06:02:16.237Z,4.36
2023-04-26T06:02:49.076Z,4.40
2023-04-26T06:03:22.182Z,4.41
2023-04-26T06:03:48.793Z,4.42
2023-04-26T06:04:15.378Z,4.44
2023-04-26T06:04:41.891Z,4.45
2023-04-26T06:05:14.931Z,4.45
2023-04-26T06:05:41.445Z,4.47
2023-04-26T06:06:07.726Z,4.47
2023-04-26T06:06:40.406Z,4.51
2023-04-26T06:07:13.076Z,4.52
2023-04-26T06:07:45.778Z,4.59
2023-04-26T06:08:18.406Z,4.62
2023-04-26T06:08:51.066Z,4.63
2023-04-26T06:09:23.766Z,4.67
2023-04-26T06:09:56.435Z,4.69
2023-04-26T06:10:29.209Z,4.72
2023-04-26T06:11:01.890Z,4.69
2023-04-26T06:11:34.541Z,4.67
2023-04-26T06:12:07.224Z,4.70
2023-04-26T06:12:39.904Z,4.75
2023-04-26T06:13:12.569Z,4.78
2023-04-26T06:13:45.243Z,4.78
2023-04-26T06:14:29.335Z,4.82
2023-04-26T06:14:50.025Z,4.85
2023-04-26T06:15:16.224Z,4.89
2023-04-26T06:15:48.891Z,4.92
2023-04-26T06:16:21.601Z,4.99
2023-04-26T06:16:54.292Z,5.03
2023-04-26T06:17:27.013Z,5.04
2023-04-26T06:17:59.811Z,5.09
2023-04-26T06:18:32.456Z,5.13
2023-04-26T06:19:05.119Z,5.15
2023-04-26T06:19:37.799Z,5.18
2023-04-26T06:20:10.470Z,5.21
2023-04-26T06:20:43.152Z,5.24
2023-04-26T06:21:15.879Z,5.27
2023-04-26T06:21:48.509Z,5.31
2023-04-26T06:22:19.593Z,5.27
2023-04-26T06:22:52.247Z,5.20
2023-04-26T06:23:24.911Z,5.24
2023-04-26T06:23:57.592Z,5.27
2023-04-26T06:24:30.258Z,5.30
2023-04-26T06:25:02.969Z,5.35
2023-04-26T06:25:35.626Z,5.40
2023-04-26T06:26:08.319Z,5.45
2023-04-26T06:26:41.001Z,5.49
2023-04-26T06:27:13.656Z,5.46
2023-04-26T06:27:46.333Z,5.54
2023-04-26T06:28:19.014Z,5.58
2023-04-26T06:28:51.714Z,5.65
2023-04-26T06:29:24.400Z,5.74
2023-04-26T06:29:57.053Z,5.79
2023-04-26T06:30:29.755Z,5.89
2023-04-26T06:31:02.431Z,5.94
2023-04-26T06:31:35.125Z,5.93
2023-04-26T06:32:07.857Z,5.97
2023-04-26T06:32:40.555Z,6.01
2023-04-26T06:33:13.363Z,6.03
2023-04-26T06:33:45.988Z,6.03
2023-04-26T06:34:18.648Z,6.01
2023-04-26T06:34:51.317Z,6.08
2023-04-26T06:35:23.996Z,6.12
2023-04-26T06:35:56.662Z,6.11
2023-04-26T06:36:29.332Z,6.06
2023-04-26T06:37:01.995Z,6.11
2023-04-26T06:37:34.659Z,6.06
2023-04-26T06:38:07.322Z,6.01
2023-04-26T06:38:39.999Z,6.03
2023-04-26T06:39:12.658Z,6.09
2023-04-26T06:39:45.324Z,6.03
2023-04-26T06:40:17.988Z,5.83
2023-04-26T06:40:50.662Z,5.85
2023-04-26T06:41:23.327Z,5.89
2023-04-26T06:41:55.994Z,5.91
2023-04-26T06:42:28.687Z,5.97
2023-04-26T06:43:01.337Z,6.06
2023-04-26T06:43:33.996Z,6.18
2023-04-26T06:44:06.663Z,6.27
2023-04-26T06:44:39.325Z,6.36
2023-04-26T06:45:12.196Z,6.38
2023-04-26T06:45:44.870Z,6.46
2023-04-26T06:46:17.633Z,6.54
2023-04-26T06:46:50.299Z,6.58
2023-04-26T06:47:23.037Z,6.61
2023-04-26T06:47:55.752Z,6.66
2023-04-26T06:48:28.423Z,6.73
2023-04-26T06:49:01.080Z,6.80
2023-04-26T06:49:33.760Z,6.89
2023-04-26T06:50:06.470Z,6.92
2023-04-26T06:50:39.155Z,6.95
2023-04-26T06:51:11.811Z,6.99
2023-04-26T06:51:44.491Z,7.06
2023-04-26T06:52:17.162Z,7.10
2023-04-26T06:52:49.854Z,7.16
2023-04-26T06:53:23.270Z,7.25
2023-04-26T06:53:49.683Z,7.31
2023-04-26T06:54:22.379Z,7.39
2023-04-26T06:54:57.627Z,7.40
2023-04-26T06:55:24.133Z,7.45
2023-04-26T06:55:56.762Z,7.43
2023-04-26T06:56:29.459Z,7.37
2023-04-26T06:57:02.114Z,7.43
2023-04-26T06:57:34.778Z,7.50
2023-04-26T06:58:07.442Z,7.46
2023-04-26T06:58:40.115Z,7.45
2023-04-26T06:59:12.782Z,7.45
2023-04-26T06:59:45.463Z,7.40
2023-04-26T07:00:18.144Z,7.39
2023-04-26T07:00:50.817Z,7.43
2023-04-26T07:01:23.497Z,7.52
2023-04-26T07:01:56.228Z,7.57
2023-04-26T07:02:29.127Z,7.67
2023-04-26T07:02:55.793Z,7.72
2023-04-26T07:03:28.684Z,7.82
2023-04-26T07:04:01.510Z,7.89
2023-04-26T07:04:34.409Z,7.97
2023-04-26T07:05:01.012Z,7.98
2023-04-26T07:05:33.750Z,7.97
2023-04-26T07:06:06.426Z,8.01
2023-04-26T07:06:39.104Z,8.08
2023-04-26T07:07:13.213Z,8.02
2023-04-26T07:07:39.960Z,8.05
2023-04-26T07:08:12.677Z,8.07
2023-04-26T07:08:45.427Z,8.07
2023-04-26T07:09:18.107Z,8.11
2023-04-26T07:09:50.776Z,8.18
2023-04-26T07:10:23.453Z,8.20
2023-04-26T07:10:56.136Z,8.22
2023-04-26T07:11:28.809Z,8.28
2023-04-26T07:12:01.489Z,8.33